Caio Braga

Scout - Grêmio
17 Feb 2028
Thursday
Process

Personality

Adaptability (5) Ambition (6) Controversy (4) Loyalty (19) Pressure (12) Professionalism (18) Sportsmanship (12) Temperament (10)

Profile

Coaching Style Democratic
License Continental C
Determination 9
Man Management 6
Motivating 9
Discipline 6
Job Satisfaction
100%
Fatigue
0%
Role Scout
Wage 104.4K p/w
Contract 14.03.2030

Performance

Behaviour Good
Training Effectiveness
49%
Player Development
60%
Injury Prevention
55%
Tactical Implementation
35%

Recent Events

Recommended a transfer target now
Attended a recruitment meeting now
Recommended a transfer target now
Attended a recruitment meeting now
Attended a recruitment meeting now
Attended a recruitment meeting now
Attended a recruitment meeting now
Assessed a player now

Currently Monitoring

287
Player Club Status Ability Confidence Watched Last Observed Latest Vote
Daniel Banjaqui Benfica Active 123 / 126 40% 4 16.02.2028 -
Esquerdinha Shrewsbury Town Active 119 / 130 40% 2 16.02.2028 -
Leonardo Campana New England Revolution Active 129 / 130 40% 2 16.02.2028 -
Louis Munteanu DC United Active 134 / 134 40% 1 16.02.2028 -
Levi Garcia Spartak Moscow Active 138 / 133 40% 1 16.02.2028 -
Jofre Torrents Ajax Active 131 / 132 40% 1 16.02.2028 -
Miguel Figueiredo Cesena Active 118 / 124 40% 6 15.02.2028 -
Daniel Costa Sporting CP Active 103 / 110 40% 1 15.02.2028 -
Izan Merino Málaga Active 129 / 133 40% 1 15.02.2028 -
Negueba Mirassol Active 130 / 124 40% 3 11.02.2028 -
Alejo Veliz Bahia Active 137 / 135 40% 2 11.02.2028 -
Isidro Pitta Bragantino Active 132 / 126 40% 1 11.02.2028 -
Ayden Heaven Luton Town Active 145 / 148 40% 2 10.02.2028 -
Ernie Weaver AFC Wimbledon Active 117 / 124 40% 1 10.02.2028 -
Rivaldo Grobler Free State Stars Active 102 / 109 40% 1 10.02.2028 -
Mikkel Hope Haugesund Active 100 / 102 40% 4 08.02.2028 -
Eduardo Felicíssimo Sporting CP Active 121 / 122 40% 3 08.02.2028 -
Trey Nyoni Rotherham United Active 138 / 142 40% 1 08.02.2028 -
Dango Ouattara Brentford Active 152 / 146 40% 5 05.02.2028 -
Yousef Salech Cardiff City Active 133 / 130 40% 1 05.02.2028 -
Lucas Villalba Botafogo Active 132 / 126 40% 4 03.02.2028 -
Brennan Johnson Stoke City Active 152 / 149 40% 4 03.02.2028 -
Agustín Anello Philadelphia Union Active 128 / 132 40% 1 03.02.2028 -
Yuri Alberto Köln Active 146 / 147 40% 2 02.02.2028 -
Mateo Cassierra Atlético Mineiro Active 135 / 131 40% 1 27.01.2028 Needs More Info
Fábio Carvalho Sheffield Wednesday Active 146 / 144 40% 3 25.01.2028 -
Thiago Brentford Active 153 / 152 40% 3 25.01.2028 -
Thierno Barry Norwich City Active 146 / 145 40% 2 21.01.2028 -
Ferreirinha Sport Recife Active 133 / 133 40% 8 19.01.2028 Monitor
Kevin Schade Brentford Active 156 / 157 40% 1 19.01.2028 -
Bénie Traoré New York City Active 131 / 133 40% 1 18.01.2028 -
Pablo Lúcio Bristol City Active 109 / 122 40% 1 17.01.2028 -
Avery Appiah Ajax Active 115 / 119 40% 1 17.01.2028 -
Christos Mouzakitis Hull City Active 136 / 142 40% 1 17.01.2028 -
Ronan Kpakio Cardiff City Active 123 / 123 40% 2 16.01.2028 -
Archie Gray Derby County Active 150 / 151 40% 3 14.01.2028 -
Josh King Chelsea Active 143 / 148 40% 2 14.01.2028 -
Dejan Joveljić Seattle Sounders Active 131 / 125 40% 1 14.01.2028 -
Martín Ojeda Orlando City Active 135 / 139 40% 5 12.01.2028 -
Arthur Cabral Botafogo Active 133 / 132 40% 1 12.01.2028 -
Lucas Paquetá Flamengo Active 143 / 143 40% 3 11.01.2028 -
Iván Angulo Orlando City Active 132 / 133 40% 4 11.01.2028 -
Renan Lodi Atlético Mineiro Active 138 / 138 40% 6 08.01.2028 -
Josh Nichols Tranmere Rovers Active 119 / 130 40% 1 08.01.2028 -
Ricky Atletico Venezuela Active 96 / 98 40% 1 08.01.2028 -
Hércules Fluminense Active 132 / 128 40% 1 08.01.2028 -
Benjamín Rollheiser Santos Active 136 / 129 40% 6 07.01.2028 -
Nuno Moreira Vasco da Gama Active 135 / 136 40% 4 07.01.2028 Monitor
Erick Pulga Bahia Active 136 / 131 40% 2 07.01.2028 Needs More Info
Eric Ramires Bragantino Shortlisted 131 / 131 40% 2 05.01.2028 Needs More Info
Matheuzinho Corinthians Active 130 / 134 40% 6 04.01.2028 -
Henry Mosquera Bragantino Active 132 / 130 40% 8 04.01.2028 -
Griffin Yow New England Revolution Active 130 / 135 40% 1 04.01.2028 -
Luca Langoni Colorado Rapids Active 135 / 133 40% 7 03.01.2028 -
Pedro de la Vega FC Dallas Active 141 / 140 40% 3 03.01.2028 -
Igor Cariús Mirassol Active 115 / 116 93% 1 07.12.2027 Approve
Håkon Evjen Molde Active 138 / 135 40% 2 01.12.2027 -
Khellven Palmeiras Active 136 / 134 40% 4 01.12.2027 -
Samuel Lino Flamengo Active 141 / 139 40% 6 30.11.2027 -
Ramón Sosa Palmeiras Active 135 / 138 40% 6 30.11.2027 -
Matheuzinho Vitória Active 128 / 126 40% 1 30.11.2027 -
Andrés Gómez Vasco da Gama Active 140 / 136 40% 6 29.11.2027 -
Rodrigo Garro Corinthians Active 139 / 135 40% 7 29.11.2027 -
Joel Ezra Enyimba Active 95 / 95 40% 2 28.11.2027 -
Martim Cunha Porto Active 107 / 109 40% 2 28.11.2027 -
Jhon Arias Palmeiras Active 140 / 139 40% 7 26.11.2027 -
Artur Botafogo Active 134 / 133 40% 6 26.11.2027 -
Tiago Palacios Estudiantes Active 133 / 132 40% 2 26.11.2027 -
Denilson Santos Sporting CP Active 99 / 111 40% 1 26.11.2027 -
Mauro Carrizo Atlético Tucumán Active 101 / 107 40% 1 25.11.2027 -
Erick Pulga Bahia Lost 135 / 127 40% 6 24.11.2027 Needs More Info
Vitinho Botafogo Active 135 / 132 40% 5 22.11.2027 -
Brais Méndez Columbus Crew Active 150 / 150 40% 7 20.11.2027 -
Vinicinho Bragantino Active 129 / 127 40% 5 20.11.2027 -
Myles Lewis-Skelly Birmingham Active 153 / 154 40% 4 20.11.2027 -
Allan Saint-Maximin Charlotte Football Club Active 147 / 145 40% 8 20.11.2027 -
Marvelous Freedom Ikorodu City Active 93 / 93 40% 3 20.11.2027 -
Maurício Palmeiras Active 140 / 132 40% 3 17.11.2027 -
Lucas Assadi AIK Active 135 / 133 40% 4 13.11.2027 -
Marco Pašalić Orlando City Active 130 / 129 40% 4 12.11.2027 -
Gérson Cruzeiro Active 139 / 145 40% 1 12.11.2027 -
Mads Bomholt Stabaek Active 108 / 117 40% 2 11.11.2027 -
João Teixeira Porto Active 115 / 125 40% 2 11.11.2027 -
Gonçalo Oliveira Benfica Active 114 / 124 40% 1 11.11.2027 -
Caleb Yirenkyi Coventry City Active 143 / 152 40% 2 07.11.2027 -
Luis Otávio Colorado Rapids Active 109 / 117 40% 1 07.11.2027 -
Jack Harrison New England Revolution Active 130 / 125 40% 5 05.11.2027 -
André Luiz New York City Active 129 / 132 40% 4 02.11.2027 -
Duvan Rangel La Equidad Active 136 / 135 40% 5 29.10.2027 -
Jorge Carrascal Flamengo Active 138 / 130 40% 2 28.10.2027 -
Hervin Goyes Deportivo Pasto Active 107 / 112 40% 1 28.10.2027 -
David Da Costa Portland Timbers Active 133 / 133 40% 4 22.10.2027 -
Ignacio Fernández Boston River Active 91 / 99 40% 2 22.10.2027 -
Juan Morán Godoy Cruz Active 108 / 109 40% 1 21.10.2027 -
Kauã Moraes Cruzeiro Active 127 / 132 40% 3 12.10.2027 -
Bahia Criciuma Active 111 / 124 40% 1 12.10.2027 -
Alejandro Almaraz Nueva Chicago Active 108 / 115 40% 1 11.10.2027 -
Pavel Bucha FC Cincinnati Active 130 / 133 40% 2 05.10.2027 -
Telasco Segovia Inter Miami CF Active 139 / 132 40% 2 05.10.2027 -
Brooke Norton-Cuffy Inter Miami CF Active 135 / 137 40% 2 01.10.2027 -
Alan Lescano Argentinos Juniors Active 134 / 130 40% 1 12.09.2027 -
Gabriel Pirani San Diego Football Club Active 131 / 130 40% 1 07.09.2027 -
Kai Wagner Philadelphia Union Active 123 / 132 40% 2 28.08.2027 -
Sergio Reguilón Inter Miami CF Active 135 / 137 40% 2 28.08.2027 -
Aaron Herrera Charlotte Football Club Active 130 / 127 40% 1 27.08.2027 -
Willyan Rocha Al Jazira Active 133 / 133 40% 1 27.08.2027 -
Naves Palmeiras Active 135 / 137 40% 1 26.08.2027 -
Arthur Santos Active 139 / 139 40% 1 25.08.2027 -
Mateo Mendoza Godoy Cruz Active 128 / 129 40% 1 25.08.2027 -
Steven Alzate Atlanta United FC Active 130 / 131 40% 1 25.08.2027 -
Sergi Palencia Los Angeles Football Club Active 130 / 123 40% 1 23.08.2027 -
Mohamed Camara Maccabi Tel Aviv Active 145 / 140 40% 1 23.08.2027 -
Marcelo Saracchi Houston Dynamo Active 125 / 120 40% 1 22.08.2027 -
Nadir Zortea Bologna Active 141 / 141 40% 3 20.08.2027 -
Alessandro Bastoni Inter Active 166 / 165 40% 2 20.08.2027 -
Tommaso Pobega Bologna Active 146 / 146 40% 1 20.08.2027 -
Nuno Tavares Lazio Active 155 / 152 40% 3 19.08.2027 -
Idrissa Touré Monza Active 138 / 142 40% 1 19.08.2027 -
Fikayo Tomori AC Milan Active 155 / 151 40% 2 17.08.2027 -
Emanuele Valeri Parma Active 142 / 140 40% 2 17.08.2027 -
Andrea Colpani Monza Active 144 / 144 40% 2 17.08.2027 -
Gaetano Castrovilli Cesena Active 137 / 139 40% 1 17.08.2027 -
Samuele Angori Pisa Active 136 / 135 40% 1 16.08.2027 -
Alessandro Buongiorno Sassuolo Active 162 / 156 40% 1 16.08.2027 -
Daniel Tonoli Modena Active 132 / 133 40% 1 16.08.2027 -
Alessandro Sersanti Modena Active 128 / 134 40% 1 13.08.2027 -
Franck Kessié Atalanta Active 152 / 147 40% 1 13.08.2027 -
Lewis Ferguson Bologna Active 148 / 151 40% 1 12.08.2027 -
Assane Diao Lazio Active 153 / 158 40% 1 11.08.2027 -
Donyell Malen AS Roma Active 155 / 151 40% 1 10.08.2027 -
Carlos Augusto Inter Active 153 / 158 40% 1 10.08.2027 -
Welington Southampton Active 134 / 139 40% 10 08.08.2027 -
Hector Ramirez Newcastle United Active 154 / 157 40% 2 08.08.2027 -
Jack Rudoni Coventry City Active 141 / 134 40% 6 08.08.2027 -
Callum O'Hare Sheffield United Active 137 / 134 40% 4 08.08.2027 -
Mikkel Damsgaard Brentford Active 148 / 150 40% 1 08.08.2027 -
Callum Hudson-Odoi Nottingham Forest Active 154 / 155 40% 1 06.08.2027 -
Azor Matusiwa Ipswich Town Active 141 / 139 40% 1 05.08.2027 -
Adrià Altimira Deportivo La Coruña Active 136 / 132 40% 1 04.08.2027 -
Kiernan Dewsbury-Hall Everton Active 153 / 152 40% 3 03.08.2027 -
Léo Scienza Southampton Active 142 / 140 40% 2 03.08.2027 -
Giacomo Raspadori Atalanta Active 154 / 152 40% 1 03.08.2027 -
Tom Fellows Southampton Active 137 / 135 40% 5 30.07.2027 -
Xavi Simons Tottenham Active 161 / 165 40% 2 30.07.2027 -
Nicolas Jackson Aston Villa Active 151 / 145 40% 1 28.07.2027 -
Georginio Rutter Brighton Active 152 / 146 40% 1 28.07.2027 -
Harry Wilson Leeds United Active 145 / 152 40% 1 27.07.2027 -
Jacob Ramsey Newcastle United Active 156 / 147 40% 1 27.07.2027 -
Morgan Whittaker Middlesbrough Active 137 / 131 40% 3 26.07.2027 -
Carlos Vicente Birmingham Active 147 / 147 40% 1 26.07.2027 -
Joe Gelhardt Hull City Active 136 / 138 40% 1 24.07.2027 -
Finn Azaz Southampton Active 133 / 137 40% 2 23.07.2027 -
Riley McGree Middlesbrough Active 136 / 136 40% 2 19.07.2027 -
Lucas Moura Sport Recife Active 134 / 134 86% 1 03.06.2027 Approve
Curtis Jones Inter Active 155 / 151 40% 8 31.05.2027 -
Ethan Galbraith Swansea City Active 134 / 130 40% 3 30.05.2027 -
Derry Murkin Derby County Active 126 / 122 40% 1 30.05.2027 -
Marco Asensio Fenerbahce Active 160 / 155 40% 2 29.05.2027 Needs More Info
James Trafford Leeds United Active 142 / 149 40% 4 28.05.2027 Monitor
Dara O'Shea Ipswich Town Active 140 / 134 40% 3 26.05.2027 -
Nico González Newcastle United Active 162 / 166 40% 4 25.05.2027 -
Adrien Truffert Bournemouth Active 154 / 145 40% 2 25.05.2027 -
Milan van Ewijk Mansfield Town Active 127 / 125 40% 3 24.05.2027 -
Rob Atkinson Bristol City Active 122 / 126 40% 1 24.05.2027 -
Callum Doyle Wrexham Active 133 / 132 40% 3 23.05.2027 -
Shea Charles Southampton Active 139 / 138 40% 2 22.05.2027 -
Sven Botman Newcastle United Active 160 / 160 40% 2 22.05.2027 -
Mads Hermansen West Ham United Active 143 / 139 40% 3 20.05.2027 -
Saša Lukić Ipswich Town Active 141 / 140 40% 3 18.05.2027 -
Arijanet Murić Sassuolo Active 138 / 147 40% 3 17.05.2027 -
Dean Henderson Crystal Palace Active 152 / 150 40% 2 17.05.2027 -
Radek Vítek Middlesbrough Active 141 / 145 40% 2 12.05.2027 Needs More Info
Balázs Tóth Blackburn Rovers Active 132 / 123 40% 2 12.05.2027 -
Mats Wieffer Brighton Active 148 / 144 40% 1 12.05.2027 -
Adam Wharton Crystal Palace Active 154 / 154 40% 2 11.05.2027 -
Nordi Mukiele Sunderland Active 142 / 144 40% 1 11.05.2027 -
Max O'Leary West Bromwich Albion Active 133 / 131 40% 2 09.05.2027 -
Alex Meret Napoli Active 157 / 160 40% 2 08.05.2027 -
Bilal Bayazıt Kayserispor Active 126 / 128 40% 1 06.05.2027 -
Caoimhin Kelleher Brentford Active 151 / 155 40% 3 05.05.2027 -
Tyler Adams Bournemouth Active 154 / 150 40% 1 04.05.2027 -
Amadou Onana Aston Villa Active 159 / 158 40% 1 04.05.2027 -
Anton Stach Leeds United Active 146 / 144 40% 1 02.05.2027 -
Daniel Iversen Preston Active 129 / 127 40% 1 29.04.2027 -
Kenny Tete Fulham Active 142 / 142 40% 2 28.04.2027 -
Jan Paul van Hecke Tottenham Active 162 / 156 40% 2 28.04.2027 -
Xaver Schlager Nottingham Forest Active 154 / 150 40% 1 28.04.2027 -
Juan Soriano Académico de Viseu Active 132 / 130 40% 2 25.04.2027 -
Bright Arrey-Mbi Braga Active 138 / 139 40% 10 24.04.2027 -
Iván Fresneda Sporting CP Active 143 / 142 40% 16 24.04.2027 -
Cezary Miszta Rio Ave Active 133 / 130 40% 3 24.04.2027 -
Nicolas Schmid Portsmouth Active 126 / 123 40% 1 24.04.2027 -
Patrick Sequeira Casa Pia Active 128 / 128 40% 3 19.04.2027 -
Pau Víctor AVS Active 135 / 135 40% 9 18.04.2027 -
Tomás Araújo Benfica Active 149 / 144 40% 17 17.04.2027 -
Ryan Sessegnon Fulham Active 149 / 151 40% 1 17.04.2027 -
Ignacio de Arruabarrena Arouca Active 125 / 132 40% 1 15.04.2027 -
Lazar Carević Famalicao Active 137 / 131 40% 1 15.04.2027 -
Fredrik Aursnes Benfica Active 147 / 150 40% 4 14.04.2027 -
Agustín Palavecino Cruz Azul Active 134 / 141 40% 2 14.04.2027 -
Kristoffer Lund Birmingham Active 133 / 130 40% 1 14.04.2027 -
Luke McNally Bristol City Active 134 / 135 40% 1 14.04.2027 -
Francisco Moura Lusitânia Lourosa Active 144 / 140 40% 4 12.04.2027 -
Kyle Walker-Peters West Ham United Active 133 / 134 40% 1 12.04.2027 -
Harry Clarke Preston Active 130 / 130 40% 1 12.04.2027 -
Gonçalo Inácio Sporting CP Active 147 / 153 40% 11 09.04.2027 -
Luís Esteves Atlas Active 132 / 126 40% 6 09.04.2027 -
Jordan Holsgrove Estoril Praia Active 131 / 127 40% 8 07.04.2027 -
Renato Sanches AVS Active 136 / 126 40% 5 07.04.2027 -
Robin Roefs Sunderland Active 147 / 148 40% 1 06.04.2027 -
Jan Bednarek Porto Active 146 / 140 40% 9 05.04.2027 -
Hwang In-Beom Porto Active 144 / 145 40% 14 05.04.2027 -
João Palhinha Benfica Active 154 / 145 40% 13 04.04.2027 -
Javi Sánchez Arouca Active 128 / 132 40% 4 02.04.2027 -
Víctor Gómez Braga Active 141 / 133 40% 17 01.04.2027 -
Alejandro Zendejas Club America Active 142 / 139 40% 2 01.04.2027 -
Alberto Costa Porto Active 142 / 148 40% 14 28.03.2027 -
Alan Varela Porto Active 148 / 148 40% 6 26.03.2027 -
Pablo Rosario Porto Active 144 / 132 40% 5 26.03.2027 -
Mario Dorgeles Braga Active 140 / 137 40% 5 26.03.2027 -
Santi García Gil Vicente Active 137 / 129 40% 9 22.03.2027 -
Samu Vitoria Guimaraes Active 128 / 123 40% 2 22.03.2027 -
Eduardo Quaresma Sporting CP Active 141 / 142 40% 6 20.03.2027 -
Luis Quintero Torreense Active 131 / 125 40% 2 19.03.2027 -
Luís Guilherme Sporting CP Active 128 / 131 40% 5 17.03.2027 -
Paulo Moreira Farense Active 129 / 128 40% 4 15.03.2027 -
Valery Académico de Viseu Active 127 / 116 40% 1 14.03.2027 -
Derensili Sanches Fernandes Huddersfield Town Active 122 / 121 40% 1 12.03.2027 -
Rodrigo Pinheiro Famalicao Active 122 / 130 40% 11 11.03.2027 -
Leon Goretzka Aston Villa Active 153 / 153 40% 2 11.03.2027 -
João Simões Sporting CP Active 130 / 137 40% 7 11.03.2027 -
Gonzalo Piovi Cruz Azul Active 139 / 124 40% 1 09.03.2027 -
Sergi Altimira Sporting CP Active 135 / 145 40% 6 08.03.2027 -
Sikou Niakaté Braga Active 137 / 141 40% 7 07.03.2027 -
Rafik Guitane Estoril Praia Active 137 / 135 40% 1 07.03.2027 -
Max Bird Birmingham Active 132 / 132 40% 5 05.03.2027 -
Diego Lainez Tigres Active 129 / 126 40% 3 03.03.2027 -
Pepê Porto Active 149 / 138 40% 4 02.03.2027 -
Gerardo Arteaga Monterrey Active 137 / 128 40% 2 01.03.2027 -
William Gomes Porto Active 139 / 141 40% 3 26.02.2027 -
Erick Sánchez OGC Nice Active 137 / 144 40% 1 26.02.2027 -
Dodi Lukébakio Benfica Active 144 / 143 40% 2 19.02.2027 -
Ozziel Herrera Tigres Active 123 / 124 40% 2 16.02.2027 -
Ross McCrorie Bristol City Active 132 / 131 40% 1 16.02.2027 -
Gustaf Lagerbielke Braga Active 136 / 141 40% 1 16.02.2027 -
Joaquim Tigres Active 131 / 124 40% 1 14.02.2027 -
Florentino Luís Ipswich Town Active 140 / 142 40% 1 08.02.2027 -
Victor Froholdt Porto Active 149 / 153 40% 7 05.02.2027 -
Gabri Martínez Braga Active 135 / 126 40% 1 04.02.2027 -
Maxime Dominguez Maritimo Active 129 / 126 40% 1 01.02.2027 -
José Hurtado Bragantino Active 123 / 123 40% 2 29.01.2027 -
Danilo Botafogo Active 141 / 141 40% 1 27.01.2027 -
Caio Alexandre Bahia Active 133 / 132 40% 5 25.01.2027 -
Matheus Bidu Corinthians Active 135 / 131 40% 4 25.01.2027 -
Christian Krasnodar Active 132 / 135 40% 6 23.01.2027 -
Lukáš Červ Viktoria Plzen Active 134 / 138 40% 2 20.01.2027 -
Jesús Orozco Chiquete Cruz Azul Active 135 / 125 40% 4 16.01.2027 -
Juan Pablo Freytes Fluminense Active 132 / 124 40% 2 08.01.2027 -
Lucas Piton Vasco da Gama Active 133 / 126 40% 3 08.01.2027 -
Félix Lemaréchal Club Brugge Active 130 / 140 40% 1 06.01.2027 -
Gabriel Veron Porto Active 125 / 120 40% 2 26.12.2026 -
Marquinhos Spartak Moscow Active 128 / 134 40% 1 14.12.2026 -
Léo Ortiz Flamengo Active 139 / 142 40% 2 23.11.2026 -
Vitor Carvalho Braga Active 133 / 136 40% 1 21.11.2026 -
Mauro Arambarri River Plate Active 157 / 155 40% 2 09.11.2026 -
Emerson Royal Flamengo Active 136 / 129 40% 1 30.10.2026 -
Gustavo Marques Bragantino Active 127 / 130 40% 2 24.10.2026 -
William Cruzeiro Active 132 / 140 40% 3 15.10.2026 -
Fabrício Bruno Cruzeiro Active 138 / 135 40% 2 13.10.2026 -
Matty Cash Aston Villa Active 153 / 146 40% 1 10.10.2026 -
Jesús Angulo Tigres Active 129 / 128 40% 1 02.10.2026 -
Zeno Debast Sporting CP Active 142 / 139 40% 3 30.09.2026 -
Martim Fernandes Porto Active 131 / 142 40% 2 28.09.2026 -
Ibrahim Sangaré Nottingham Forest Active 148 / 153 40% 1 27.09.2026 -
Alexander Bah Benfica Active 141 / 134 40% 1 15.09.2026 -
Santiago Ramos Mingo Bahia Active 134 / 132 40% 1 12.09.2026 -
Mathias De Amorim Famalicao Active 130 / 132 40% 1 07.09.2026 -
Yoan Bonny Inter Active 141 / 142 40% 2 18.08.2026 -
Youssef En-Nesyri Al-Ittihad Active 134 / 140 40% 1 18.08.2026 -
Gabriel Jesus Barcelona Active 150 / 158 40% 4 17.08.2026 -
Kerem Aktürkoğlu Fenerbahce Active 140 / 133 40% 1 15.08.2026 -
Ricardo Horta Braga Active 153 / 147 40% 1 09.08.2026 -
Joshua Zirkzee Manchester United Active 147 / 136 40% 1 05.08.2026 -
Gonzalo Fulham Active 146 / 146 40% 1 04.08.2026 -
Ángel Correa River Plate Active 147 / 142 40% 1 04.08.2026 -
Matheus Pereira Cruzeiro Active 140 / 137 40% 1 03.08.2026 -
Karim Adeyemi Barcelona Active 144 / 154 40% 1 02.08.2026 -